sensor_id;sensor_type;location;lat;lon;timestamp;temperature;humidity
2042;DHT22;1026;51.460;7.252;2023-05-10T00:00:46;17.40;93.70
2042;DHT22;1026;51.460;7.252;2023-05-10T00:03:11;17.40;93.70
2042;DHT22;1026;51.460;7.252;2023-05-10T00:05:37;17.30;93.60
2042;DHT22;1026;51.460;7.252;2023-05-10T00:08:03;17.40;93.70
2042;DHT22;1026;51.460;7.252;2023-05-10T00:10:29;17.40;93.70
2042;DHT22;1026;51.460;7.252;2023-05-10T00:12:54;17.40;93.70
2042;DHT22;1026;51.460;7.252;2023-05-10T00:15:20;17.30;93.70
2042;DHT22;1026;51.460;7.252;2023-05-10T00:17:45;17.30;93.70
2042;DHT22;1026;51.460;7.252;2023-05-10T00:20:11;17.30;93.70
2042;DHT22;1026;51.460;7.252;2023-05-10T00:22:37;17.30;93.70
2042;DHT22;1026;51.460;7.252;2023-05-10T00:25:03;17.30;93.80
2042;DHT22;1026;51.460;7.252;2023-05-10T00:27:28;17.30;93.80
2042;DHT22;1026;51.460;7.252;2023-05-10T00:29:54;17.30;93.80
2042;DHT22;1026;51.460;7.252;2023-05-10T00:32:20;17.30;93.80
2042;DHT22;1026;51.460;7.252;2023-05-10T00:34:46;17.30;93.80
2042;DHT22;1026;51.460;7.252;2023-05-10T00:37:11;17.30;93.90
2042;DHT22;1026;51.460;7.252;2023-05-10T00:39:37;17.10;93.80
2042;DHT22;1026;51.460;7.252;2023-05-10T00:42:02;17.20;93.90
2042;DHT22;1026;51.460;7.252;2023-05-10T00:44:29;17.10;93.80
2042;DHT22;1026;51.460;7.252;2023-05-10T00:46:56;17.20;93.90
2042;DHT22;1026;51.460;7.252;2023-05-10T00:49:22;17.20;93.90
2042;DHT22;1026;51.460;7.252;2023-05-10T00:51:48;17.20;93.90
2042;DHT22;1026;51.460;7.252;2023-05-10T00:54:14;17.20;93.90
2042;DHT22;1026;51.460;7.252;2023-05-10T00:56:41;17.20;93.90
2042;DHT22;1026;51.460;7.252;2023-05-10T00:59:09;17.10;94.10
2042;DHT22;1026;51.460;7.252;2023-05-10T01:01:35;17.10;94.00
2042;DHT22;1026;51.460;7.252;2023-05-10T01:04:02;17.00;93.90
2042;DHT22;1026;51.460;7.252;2023-05-10T01:06:28;17.00;93.90
2042;DHT22;1026;51.460;7.252;2023-05-10T01:08:54;17.00;93.90
2042;DHT22;1026;51.460;7.252;2023-05-10T01:11:21;17.10;94.00
2042;DHT22;1026;51.460;7.252;2023-05-10T01:13:52;17.10;94.00
2042;DHT22;1026;51.460;7.252;2023-05-10T01:16:20;17.00;94.00
2042;DHT22;1026;51.460;7.252;2023-05-10T01:18:46;17.00;94.00
2042;DHT22;1026;51.460;7.252;2023-05-10T01:21:31;17.00;94.00
2042;DHT22;1026;51.460;7.252;2023-05-10T01:26:51;17.00;94.10
2042;DHT22;1026;51.460;7.252;2023-05-10T01:35:06;17.00;94.10
2042;DHT22;1026;51.460;7.252;2023-05-10T01:37:56;16.90;94.10
2042;DHT22;1026;51.460;7.252;2023-05-10T01:43:13;16.90;94.10
2042;DHT22;1026;51.460;7.252;2023-05-10T01:45:53;16.90;94.10
2042;DHT22;1026;51.460;7.252;2023-05-10T01:48:23;16.90;94.20
2042;DHT22;1026;51.460;7.252;2023-05-10T01:50:52;16.90;94.30
2042;DHT22;1026;51.460;7.252;2023-05-10T01:53:20;16.80;94.20
2042;DHT22;1026;51.460;7.252;2023-05-10T01:55:49;16.90;94.20
2042;DHT22;1026;51.460;7.252;2023-05-10T02:00:53;16.80;94.20
2042;DHT22;1026;51.460;7.252;2023-05-10T02:03:23;16.80;94.20
2042;DHT22;1026;51.460;7.252;2023-05-10T02:05:51;16.80;94.20
2042;DHT22;1026;51.460;7.252;2023-05-10T02:08:17;16.80;94.20
2042;DHT22;1026;51.460;7.252;2023-05-10T02:10:45;16.80;94.20
2042;DHT22;1026;51.460;7.252;2023-05-10T02:13:18;16.80;94.20
2042;DHT22;1026;51.460;7.252;2023-05-10T02:15:47;16.80;94.30
2042;DHT22;1026;51.460;7.252;2023-05-10T02:18:13;16.80;94.30
2042;DHT22;1026;51.460;7.252;2023-05-10T02:20:42;16.80;94.30
2042;DHT22;1026;51.460;7.252;2023-05-10T02:23:08;16.80;94.30
2042;DHT22;1026;51.460;7.252;2023-05-10T02:25:36;16.70;94.30
2042;DHT22;1026;51.460;7.252;2023-05-10T02:28:04;16.70;94.20
2042;DHT22;1026;51.460;7.252;2023-05-10T02:30:33;16.70;94.30
2042;DHT22;1026;51.460;7.252;2023-05-10T02:33:01;16.70;94.30
2042;DHT22;1026;51.460;7.252;2023-05-10T02:35:28;16.70;94.30
2042;DHT22;1026;51.460;7.252;2023-05-10T02:37:54;16.70;94.30
2042;DHT22;1026;51.460;7.252;2023-05-10T02:40:21;16.70;94.30
2042;DHT22;1026;51.460;7.252;2023-05-10T02:42:50;16.70;94.30
2042;DHT22;1026;51.460;7.252;2023-05-10T02:45:20;16.60;94.30
2042;DHT22;1026;51.460;7.252;2023-05-10T02:47:47;16.70;94.30
2042;DHT22;1026;51.460;7.252;2023-05-10T02:50:13;16.60;94.30
2042;DHT22;1026;51.460;7.252;2023-05-10T02:52:43;16.60;94.30
2042;DHT22;1026;51.460;7.252;2023-05-10T02:55:12;16.60;94.40
2042;DHT22;1026;51.460;7.252;2023-05-10T02:57:58;16.60;94.40
2042;DHT22;1026;51.460;7.252;2023-05-10T03:00:25;16.60;94.40
2042;DHT22;1026;51.460;7.252;2023-05-10T03:02:51;16.60;94.30
2042;DHT22;1026;51.460;7.252;2023-05-10T03:05:16;16.60;94.40
2042;DHT22;1026;51.460;7.252;2023-05-10T03:07:42;16.60;94.40
2042;DHT22;1026;51.460;7.252;2023-05-10T03:10:09;16.60;94.40
2042;DHT22;1026;51.460;7.252;2023-05-10T03:13:01;16.50;94.40
2042;DHT22;1026;51.460;7.252;2023-05-10T03:18:22;16.50;94.40
2042;DHT22;1026;51.460;7.252;2023-05-10T03:21:08;16.50;94.40
2042;DHT22;1026;51.460;7.252;2023-05-10T03:23:42;16.50;94.40
2042;DHT22;1026;51.460;7.252;2023-05-10T03:26:08;16.50;94.40
2042;DHT22;1026;51.460;7.252;2023-05-10T03:28:35;16.50;94.40
2042;DHT22;1026;51.460;7.252;2023-05-10T03:31:02;16.50;94.40
2042;DHT22;1026;51.460;7.252;2023-05-10T03:33:29;16.50;94.40
2042;DHT22;1026;51.460;7.252;2023-05-10T03:35:55;16.50;94.40
2042;DHT22;1026;51.460;7.252;2023-05-10T03:38:21;16.50;94.50
2042;DHT22;1026;51.460;7.252;2023-05-10T03:40:47;16.40;94.40
2042;DHT22;1026;51.460;7.252;2023-05-10T03:43:13;16.40;94.40
2042;DHT22;1026;51.460;7.252;2023-05-10T03:45:38;16.50;94.50
2042;DHT22;1026;51.460;7.252;2023-05-10T03:48:04;16.40;94.40
2042;DHT22;1026;51.460;7.252;2023-05-10T03:50:30;16.40;94.40
2042;DHT22;1026;51.460;7.252;2023-05-10T03:52:56;16.40;94.40
2042;DHT22;1026;51.460;7.252;2023-05-10T03:55:22;16.40;94.40
2042;DHT22;1026;51.460;7.252;2023-05-10T03:57:48;16.40;94.40
2042;DHT22;1026;51.460;7.252;2023-05-10T04:00:21;16.40;94.40
2042;DHT22;1026;51.460;7.252;2023-05-10T04:02:46;16.40;94.40
2042;DHT22;1026;51.460;7.252;2023-05-10T04:05:15;16.40;94.50
2042;DHT22;1026;51.460;7.252;2023-05-10T04:07:41;16.40;94.50
2042;DHT22;1026;51.460;7.252;2023-05-10T04:10:07;16.40;94.50
2042;DHT22;1026;51.460;7.252;2023-05-10T04:12:33;16.40;94.50
2042;DHT22;1026;51.460;7.252;2023-05-10T04:14:58;16.40;94.50
2042;DHT22;1026;51.460;7.252;2023-05-10T04:17:24;16.30;94.50
2042;DHT22;1026;51.460;7.252;2023-05-10T04:19:50;16.30;94.40
2042;DHT22;1026;51.460;7.252;2023-05-10T04:22:18;16.30;94.50
2042;DHT22;1026;51.460;7.252;2023-05-10T04:24:44;16.30;94.50
2042;DHT22;1026;51.460;7.252;2023-05-10T04:27:09;16.30;94.50
2042;DHT22;1026;51.460;7.252;2023-05-10T04:29:35;16.30;94.50
2042;DHT22;1026;51.460;7.252;2023-05-10T04:32:00;16.30;94.50
2042;DHT22;1026;51.460;7.252;2023-05-10T04:34:26;16.30;94.50
2042;DHT22;1026;51.460;7.252;2023-05-10T04:36:52;16.30;94.50
2042;DHT22;1026;51.460;7.252;2023-05-10T04:39:17;16.30;94.50
2042;DHT22;1026;51.460;7.252;2023-05-10T04:41:43;16.30;94.60
2042;DHT22;1026;51.460;7.252;2023-05-10T04:44:09;16.20;94.50
2042;DHT22;1026;51.460;7.252;2023-05-10T04:46:34;16.20;94.50
2042;DHT22;1026;51.460;7.252;2023-05-10T04:49:00;16.20;94.50
2042;DHT22;1026;51.460;7.252;2023-05-10T04:51:32;16.20;94.50
2042;DHT22;1026;51.460;7.252;2023-05-10T04:53:58;16.20;94.60
2042;DHT22;1026;51.460;7.252;2023-05-10T04:56:23;16.20;94.60
2042;DHT22;1026;51.460;7.252;2023-05-10T04:58:49;16.20;94.50
2042;DHT22;1026;51.460;7.252;2023-05-10T05:01:15;16.20;94.60
2042;DHT22;1026;51.460;7.252;2023-05-10T05:03:40;16.20;94.60
2042;DHT22;1026;51.460;7.252;2023-05-10T05:06:06;16.20;94.60
2042;DHT22;1026;51.460;7.252;2023-05-10T05:08:32;16.20;94.60
2042;DHT22;1026;51.460;7.252;2023-05-10T05:10:58;16.20;94.60
2042;DHT22;1026;51.460;7.252;2023-05-10T05:13:24;16.20;94.60
2042;DHT22;1026;51.460;7.252;2023-05-10T05:15:50;16.20;94.60
2042;DHT22;1026;51.460;7.252;2023-05-10T05:18:21;16.10;94.60
2042;DHT22;1026;51.460;7.252;2023-05-10T05:20:46;16.10;94.60
2042;DHT22;1026;51.460;7.252;2023-05-10T05:23:12;16.10;94.60
2042;DHT22;1026;51.460;7.252;2023-05-10T05:25:37;16.10;94.60
2042;DHT22;1026;51.460;7.252;2023-05-10T05:28:03;16.20;94.70
2042;DHT22;1026;51.460;7.252;2023-05-10T05:30:29;16.10;94.60
2042;DHT22;1026;51.460;7.252;2023-05-10T05:32:55;16.10;94.60
2042;DHT22;1026;51.460;7.252;2023-05-10T05:35:20;16.20;94.70
2042;DHT22;1026;51.460;7.252;2023-05-10T05:37:46;16.10;94.60
2042;DHT22;1026;51.460;7.252;2023-05-10T05:40:13;16.10;94.70
2042;DHT22;1026;51.460;7.252;2023-05-10T05:42:39;16.10;94.60
2042;DHT22;1026;51.460;7.252;2023-05-10T05:45:14;16.10;94.70
2042;DHT22;1026;51.460;7.252;2023-05-10T05:47:40;16.00;94.70
2042;DHT22;1026;51.460;7.252;2023-05-10T05:50:06;16.10;94.70
2042;DHT22;1026;51.460;7.252;2023-05-10T05:52:32;16.10;94.70
2042;DHT22;1026;51.460;7.252;2023-05-10T05:54:57;16.10;94.70
2042;DHT22;1026;51.460;7.252;2023-05-10T05:57:23;16.10;94.70
2042;DHT22;1026;51.460;7.252;2023-05-10T05:59:49;16.10;94.70
2042;DHT22;1026;51.460;7.252;2023-05-10T06:02:14;15.90;94.70
2042;DHT22;1026;51.460;7.252;2023-05-10T06:04:40;16.10;94.80
2042;DHT22;1026;51.460;7.252;2023-05-10T06:07:06;16.00;94.70
2042;DHT22;1026;51.460;7.252;2023-05-10T06:09:31;16.10;94.80
2042;DHT22;1026;51.460;7.252;2023-05-10T06:11:57;16.10;94.80
2042;DHT22;1026;51.460;7.252;2023-05-10T06:14:23;16.00;94.70
2042;DHT22;1026;51.460;7.252;2023-05-10T06:16:48;16.00;94.70
2042;DHT22;1026;51.460;7.252;2023-05-10T06:19:14;16.00;94.70
2042;DHT22;1026;51.460;7.252;2023-05-10T06:21:40;16.00;94.80
2042;DHT22;1026;51.460;7.252;2023-05-10T06:24:06;16.00;94.80
2042;DHT22;1026;51.460;7.252;2023-05-10T06:26:38;16.10;94.80
2042;DHT22;1026;51.460;7.252;2023-05-10T06:29:03;16.00;94.70
2042;DHT22;1026;51.460;7.252;2023-05-10T06:31:29;16.10;94.80
2042;DHT22;1026;51.460;7.252;2023-05-10T06:33:55;16.00;94.70
2042;DHT22;1026;51.460;7.252;2023-05-10T06:36:26;16.00;94.70
2042;DHT22;1026;51.460;7.252;2023-05-10T06:38:52;16.00;94.80
2042;DHT22;1026;51.460;7.252;2023-05-10T06:41:18;16.00;94.80
2042;DHT22;1026;51.460;7.252;2023-05-10T06:43:43;16.00;94.80
2042;DHT22;1026;51.460;7.252;2023-05-10T06:46:09;16.00;94.80
2042;DHT22;1026;51.460;7.252;2023-05-10T06:48:35;16.00;94.80
2042;DHT22;1026;51.460;7.252;2023-05-10T06:51:01;16.00;94.80
2042;DHT22;1026;51.460;7.252;2023-05-10T06:53:26;16.00;94.90
2042;DHT22;1026;51.460;7.252;2023-05-10T06:55:52;16.00;94.80
2042;DHT22;1026;51.460;7.252;2023-05-10T06:58:18;16.00;94.90
2042;DHT22;1026;51.460;7.252;2023-05-10T07:00:44;16.00;94.90
2042;DHT22;1026;51.460;7.252;2023-05-10T07:03:10;16.00;94.90
2042;DHT22;1026;51.460;7.252;2023-05-10T07:05:36;16.00;94.90
2042;DHT22;1026;51.460;7.252;2023-05-10T07:08:02;16.00;94.80
2042;DHT22;1026;51.460;7.252;2023-05-10T07:10:27;16.00;94.80
2042;DHT22;1026;51.460;7.252;2023-05-10T07:12:53;16.00;94.80
2042;DHT22;1026;51.460;7.252;2023-05-10T07:15:19;16.00;94.90
2042;DHT22;1026;51.460;7.252;2023-05-10T07:17:44;16.00;94.80
2042;DHT22;1026;51.460;7.252;2023-05-10T07:20:11;16.00;94.80
2042;DHT22;1026;51.460;7.252;2023-05-10T07:22:36;16.00;94.90
2042;DHT22;1026;51.460;7.252;2023-05-10T07:25:02;16.00;94.90
2042;DHT22;1026;51.460;7.252;2023-05-10T07:27:28;16.00;94.90
2042;DHT22;1026;51.460;7.252;2023-05-10T07:29:54;16.00;94.90
2042;DHT22;1026;51.460;7.252;2023-05-10T07:32:20;16.00;94.90
2042;DHT22;1026;51.460;7.252;2023-05-10T07:34:46;16.00;94.90
2042;DHT22;1026;51.460;7.252;2023-05-10T07:37:11;16.00;94.90
2042;DHT22;1026;51.460;7.252;2023-05-10T07:39:37;16.00;94.90
2042;DHT22;1026;51.460;7.252;2023-05-10T07:42:03;16.00;94.90
2042;DHT22;1026;51.460;7.252;2023-05-10T07:44:29;16.00;94.90
2042;DHT22;1026;51.460;7.252;2023-05-10T07:46:54;16.00;94.80
2042;DHT22;1026;51.460;7.252;2023-05-10T07:55:39;16.00;94.90
2042;DHT22;1026;51.460;7.252;2023-05-10T07:58:05;16.00;94.90
2042;DHT22;1026;51.460;7.252;2023-05-10T08:00:33;16.00;94.90
2042;DHT22;1026;51.460;7.252;2023-05-10T08:02:59;16.00;94.90
2042;DHT22;1026;51.460;7.252;2023-05-10T08:05:25;16.10;95.00
2042;DHT22;1026;51.460;7.252;2023-05-10T08:07:57;16.10;95.00
2042;DHT22;1026;51.460;7.252;2023-05-10T08:10:24;16.00;94.90
2042;DHT22;1026;51.460;7.252;2023-05-10T08:12:50;16.10;95.00
2042;DHT22;1026;51.460;7.252;2023-05-10T08:15:15;16.10;95.00
2042;DHT22;1026;51.460;7.252;2023-05-10T08:17:41;16.10;95.00
2042;DHT22;1026;51.460;7.252;2023-05-10T08:20:07;16.10;95.00
2042;DHT22;1026;51.460;7.252;2023-05-10T08:22:33;16.10;95.00
2042;DHT22;1026;51.460;7.252;2023-05-10T08:24:58;16.10;95.00
2042;DHT22;1026;51.460;7.252;2023-05-10T08:27:24;16.10;95.10
2042;DHT22;1026;51.460;7.252;2023-05-10T08:29:50;16.10;95.00
2042;DHT22;1026;51.460;7.252;2023-05-10T08:32:15;16.10;95.30
2042;DHT22;1026;51.460;7.252;2023-05-10T08:34:41;16.10;95.00
2042;DHT22;1026;51.460;7.252;2023-05-10T08:37:07;16.10;95.00
2042;DHT22;1026;51.460;7.252;2023-05-10T08:39:35;16.10;95.00
2042;DHT22;1026;51.460;7.252;2023-05-10T08:42:04;16.10;95.00
2042;DHT22;1026;51.460;7.252;2023-05-10T08:44:32;16.10;95.00
2042;DHT22;1026;51.460;7.252;2023-05-10T08:46:59;16.20;95.00
2042;DHT22;1026;51.460;7.252;2023-05-10T08:49:31;16.20;95.00
2042;DHT22;1026;51.460;7.252;2023-05-10T08:51:57;16.20;95.00
2042;DHT22;1026;51.460;7.252;2023-05-10T08:54:25;16.20;95.10
2042;DHT22;1026;51.460;7.252;2023-05-10T08:56:50;16.20;95.30
2042;DHT22;1026;51.460;7.252;2023-05-10T08:59:17;16.20;95.10
2042;DHT22;1026;51.460;7.252;2023-05-10T09:01:49;16.20;94.90
2042;DHT22;1026;51.460;7.252;2023-05-10T09:04:16;16.20;95.10
2042;DHT22;1026;51.460;7.252;2023-05-10T09:06:42;16.20;95.00
2042;DHT22;1026;51.460;7.252;2023-05-10T09:09:08;16.30;95.00
2042;DHT22;1026;51.460;7.252;2023-05-10T09:11:34;16.30;94.90
2042;DHT22;1026;51.460;7.252;2023-05-10T09:14:01;16.30;95.00
2042;DHT22;1026;51.460;7.252;2023-05-10T09:16:26;16.30;94.90
2042;DHT22;1026;51.460;7.252;2023-05-10T09:18:52;16.30;94.80
2042;DHT22;1026;51.460;7.252;2023-05-10T09:21:19;16.30;94.80
2042;DHT22;1026;51.460;7.252;2023-05-10T09:23:47;16.30;94.90
2042;DHT22;1026;51.460;7.252;2023-05-10T09:26:15;16.30;94.80
2042;DHT22;1026;51.460;7.252;2023-05-10T09:28:57;16.40;94.80
2042;DHT22;1026;51.460;7.252;2023-05-10T09:31:23;16.40;94.80
2042;DHT22;1026;51.460;7.252;2023-05-10T09:33:51;16.40;95.10
2042;DHT22;1026;51.460;7.252;2023-05-10T09:36:17;16.30;94.70
2042;DHT22;1026;51.460;7.252;2023-05-10T09:38:48;16.40;94.70
2042;DHT22;1026;51.460;7.252;2023-05-10T09:41:18;16.40;94.80
2042;DHT22;1026;51.460;7.252;2023-05-10T09:43:44;16.40;94.70
2042;DHT22;1026;51.460;7.252;2023-05-10T09:46:10;16.40;94.70
2042;DHT22;1026;51.460;7.252;2023-05-10T09:48:42;16.40;94.70
2042;DHT22;1026;51.460;7.252;2023-05-10T09:51:22;16.40;94.60
2042;DHT22;1026;51.460;7.252;2023-05-10T09:53:48;16.50;94.70
2042;DHT22;1026;51.460;7.252;2023-05-10T09:56:33;16.50;94.70
2042;DHT22;1026;51.460;7.252;2023-05-10T09:59:02;16.50;94.70
2042;DHT22;1026;51.460;7.252;2023-05-10T10:01:29;16.50;94.70
2042;DHT22;1026;51.460;7.252;2023-05-10T10:03:54;16.50;94.50
2042;DHT22;1026;51.460;7.252;2023-05-10T10:06:23;16.50;94.60
2042;DHT22;1026;51.460;7.252;2023-05-10T10:08:50;16.50;94.60
2042;DHT22;1026;51.460;7.252;2023-05-10T10:11:16;16.50;94.50
2042;DHT22;1026;51.460;7.252;2023-05-10T10:13:42;16.50;94.50
2042;DHT22;1026;51.460;7.252;2023-05-10T10:16:08;16.50;94.80
2042;DHT22;1026;51.460;7.252;2023-05-10T10:18:36;16.60;94.60
2042;DHT22;1026;51.460;7.252;2023-05-10T10:21:06;16.60;94.60
2042;DHT22;1026;51.460;7.252;2023-05-10T10:23:32;16.60;94.60
2042;DHT22;1026;51.460;7.252;2023-05-10T10:25:58;16.60;94.60
2042;DHT22;1026;51.460;7.252;2023-05-10T10:28:36;16.60;94.60
2042;DHT22;1026;51.460;7.252;2023-05-10T10:31:34;16.60;94.80
2042;DHT22;1026;51.460;7.252;2023-05-10T10:34:05;16.60;94.40
2042;DHT22;1026;51.460;7.252;2023-05-10T10:36:39;16.60;94.50
2042;DHT22;1026;51.460;7.252;2023-05-10T10:39:09;16.60;94.50
2042;DHT22;1026;51.460;7.252;2023-05-10T10:41:38;16.70;94.60
2042;DHT22;1026;51.460;7.252;2023-05-10T10:52:15;16.70;94.50
2042;DHT22;1026;51.460;7.252;2023-05-10T10:57:30;16.80;94.30
2042;DHT22;1026;51.460;7.252;2023-05-10T11:00:21;16.80;94.60
2042;DHT22;1026;51.460;7.252;2023-05-10T11:05:49;16.80;94.30
2042;DHT22;1026;51.460;7.252;2023-05-10T11:11:04;16.90;94.20
2042;DHT22;1026;51.460;7.252;2023-05-10T11:19:02;16.90;93.90
2042;DHT22;1026;51.460;7.252;2023-05-10T11:21:30;16.90;93.90
2042;DHT22;1026;51.460;7.252;2023-05-10T11:23:58;16.90;93.90
2042;DHT22;1026;51.460;7.252;2023-05-10T11:26:29;16.90;94.00
2042;DHT22;1026;51.460;7.252;2023-05-10T11:28:55;16.90;94.00
2042;DHT22;1026;51.460;7.252;2023-05-10T11:31:21;16.90;93.90
2042;DHT22;1026;51.460;7.252;2023-05-10T11:33:51;16.90;93.90
2042;DHT22;1026;51.460;7.252;2023-05-10T11:36:19;16.90;93.90
2042;DHT22;1026;51.460;7.252;2023-05-10T11:38:46;16.90;93.90
2042;DHT22;1026;51.460;7.252;2023-05-10T11:41:17;17.00;93.90
2042;DHT22;1026;51.460;7.252;2023-05-10T11:43:46;17.00;93.90
2042;DHT22;1026;51.460;7.252;2023-05-10T11:46:12;17.00;93.80
2042;DHT22;1026;51.460;7.252;2023-05-10T11:48:39;17.00;93.80
2042;DHT22;1026;51.460;7.252;2023-05-10T11:51:06;17.00;93.60
2042;DHT22;1026;51.460;7.252;2023-05-10T11:53:33;17.00;94.00
2042;DHT22;1026;51.460;7.252;2023-05-10T11:56:09;17.10;93.80
2042;DHT22;1026;51.460;7.252;2023-05-10T11:58:36;17.10;93.70
2042;DHT22;1026;51.460;7.252;2023-05-10T12:01:03;17.10;93.70
2042;DHT22;1026;51.460;7.252;2023-05-10T12:03:29;17.10;93.70
2042;DHT22;1026;51.460;7.252;2023-05-10T12:05:56;17.10;93.70
2042;DHT22;1026;51.460;7.252;2023-05-10T12:08:26;17.10;93.60
2042;DHT22;1026;51.460;7.252;2023-05-10T12:11:03;17.10;93.90
2042;DHT22;1026;51.460;7.252;2023-05-10T12:13:29;17.10;93.40
2042;DHT22;1026;51.460;7.252;2023-05-10T12:15:58;17.10;93.60
2042;DHT22;1026;51.460;7.252;2023-05-10T12:18:24;17.10;93.50
2042;DHT22;1026;51.460;7.252;2023-05-10T12:20:52;17.10;93.50
2042;DHT22;1026;51.460;7.252;2023-05-10T12:23:20;17.10;93.50
2042;DHT22;1026;51.460;7.252;2023-05-10T12:25:46;17.10;93.50
2042;DHT22;1026;51.460;7.252;2023-05-10T12:28:11;17.10;93.50
2042;DHT22;1026;51.460;7.252;2023-05-10T12:30:38;17.20;93.60
2042;DHT22;1026;51.460;7.252;2023-05-10T12:33:24;17.20;93.50
2042;DHT22;1026;51.460;7.252;2023-05-10T12:35:51;17.20;93.50
2042;DHT22;1026;51.460;7.252;2023-05-10T12:38:35;17.20;93.40
2042;DHT22;1026;51.460;7.252;2023-05-10T12:41:19;17.20;93.30
2042;DHT22;1026;51.460;7.252;2023-05-10T12:43:45;17.30;93.60
2042;DHT22;1026;51.460;7.252;2023-05-10T12:46:13;17.30;93.50
2042;DHT22;1026;51.460;7.252;2023-05-10T12:48:40;17.30;93.50
2042;DHT22;1026;51.460;7.252;2023-05-10T12:51:07;17.30;93.50
2042;DHT22;1026;51.460;7.252;2023-05-10T12:53:42;17.40;93.60
2042;DHT22;1026;51.460;7.252;2023-05-10T12:56:08;17.40;93.60
2042;DHT22;1026;51.460;7.252;2023-05-10T12:58:34;17.40;93.60
2042;DHT22;1026;51.460;7.252;2023-05-10T13:01:06;17.50;93.60
2042;DHT22;1026;51.460;7.252;2023-05-10T13:03:32;17.50;93.40
2042;DHT22;1026;51.460;7.252;2023-05-10T13:05:58;17.50;93.40
2042;DHT22;1026;51.460;7.252;2023-05-10T13:08:23;17.50;93.30
2042;DHT22;1026;51.460;7.252;2023-05-10T13:10:49;17.40;93.20
2042;DHT22;1026;51.460;7.252;2023-05-10T13:13:15;17.50;93.20
2042;DHT22;1026;51.460;7.252;2023-05-10T13:15:41;17.60;93.40
2042;DHT22;1026;51.460;7.252;2023-05-10T13:18:06;17.60;93.50
2042;DHT22;1026;51.460;7.252;2023-05-10T13:20:32;17.60;93.40
2042;DHT22;1026;51.460;7.252;2023-05-10T13:22:58;17.60;93.40
2042;DHT22;1026;51.460;7.252;2023-05-10T13:25:23;17.70;93.30
2042;DHT22;1026;51.460;7.252;2023-05-10T13:27:49;17.70;93.50
2042;DHT22;1026;51.460;7.252;2023-05-10T13:30:15;17.70;93.10
2042;DHT22;1026;51.460;7.252;2023-05-10T13:32:40;17.70;93.10
2042;DHT22;1026;51.460;7.252;2023-05-10T13:35:06;17.70;92.80
2042;DHT22;1026;51.460;7.252;2023-05-10T13:37:32;17.70;92.70
2042;DHT22;1026;51.460;7.252;2023-05-10T13:40:01;17.80;92.80
2042;DHT22;1026;51.460;7.252;2023-05-10T13:42:26;17.80;92.80
2042;DHT22;1026;51.460;7.252;2023-05-10T13:44:52;17.80;92.80
2042;DHT22;1026;51.460;7.252;2023-05-10T13:47:18;17.80;92.60
2042;DHT22;1026;51.460;7.252;2023-05-10T13:49:44;17.90;92.90
2042;DHT22;1026;51.460;7.252;2023-05-10T13:52:09;17.90;93.10
2042;DHT22;1026;51.460;7.252;2023-05-10T13:54:37;17.90;93.10
2042;DHT22;1026;51.460;7.252;2023-05-10T13:57:03;17.90;93.20
2042;DHT22;1026;51.460;7.252;2023-05-10T13:59:30;17.90;93.20
2042;DHT22;1026;51.460;7.252;2023-05-10T14:01:57;17.90;93.10
2042;DHT22;1026;51.460;7.252;2023-05-10T14:04:30;18.00;92.80
2042;DHT22;1026;51.460;7.252;2023-05-10T14:06:56;18.00;92.70
2042;DHT22;1026;51.460;7.252;2023-05-10T14:09:22;18.00;91.60
2042;DHT22;1026;51.460;7.252;2023-05-10T14:11:47;18.10;92.00
2042;DHT22;1026;51.460;7.252;2023-05-10T14:14:13;18.10;92.30
2042;DHT22;1026;51.460;7.252;2023-05-10T14:16:43;18.10;92.10
2042;DHT22;1026;51.460;7.252;2023-05-10T14:19:09;18.10;92.00
2042;DHT22;1026;51.460;7.252;2023-05-10T14:21:35;18.20;91.50
2042;DHT22;1026;51.460;7.252;2023-05-10T14:24:01;18.20;92.10
2042;DHT22;1026;51.460;7.252;2023-05-10T14:26:26;18.20;91.30
2042;DHT22;1026;51.460;7.252;2023-05-10T14:28:52;18.30;91.80
2042;DHT22;1026;51.460;7.252;2023-05-10T14:31:18;18.20;91.60
2042;DHT22;1026;51.460;7.252;2023-05-10T14:33:48;18.30;91.90
2042;DHT22;1026;51.460;7.252;2023-05-10T14:36:14;18.40;92.00
2042;DHT22;1026;51.460;7.252;2023-05-10T14:38:40;18.40;91.40
2042;DHT22;1026;51.460;7.252;2023-05-10T14:41:06;18.40;91.70
2042;DHT22;1026;51.460;7.252;2023-05-10T14:43:32;18.50;91.70
2042;DHT22;1026;51.460;7.252;2023-05-10T14:45:58;18.50;91.70
2042;DHT22;1026;51.460;7.252;2023-05-10T14:48:27;18.40;91.20
2042;DHT22;1026;51.460;7.252;2023-05-10T14:50:52;18.50;90.80
2042;DHT22;1026;51.460;7.252;2023-05-10T14:53:18;18.50;90.60
2042;DHT22;1026;51.460;7.252;2023-05-10T14:56:31;18.60;90.50
2042;DHT22;1026;51.460;7.252;2023-05-10T14:58:56;18.60;90.00
2042;DHT22;1026;51.460;7.252;2023-05-10T15:01:22;18.70;90.00
2042;DHT22;1026;51.460;7.252;2023-05-10T15:03:48;18.70;89.70
2042;DHT22;1026;51.460;7.252;2023-05-10T15:06:15;18.70;89.70
2042;DHT22;1026;51.460;7.252;2023-05-10T15:08:41;18.70;90.00
2042;DHT22;1026;51.460;7.252;2023-05-10T15:11:07;18.70;90.30
2042;DHT22;1026;51.460;7.252;2023-05-10T15:13:33;18.70;90.20
2042;DHT22;1026;51.460;7.252;2023-05-10T15:15:58;18.70;89.70
2042;DHT22;1026;51.460;7.252;2023-05-10T15:18:30;18.80;89.20
2042;DHT22;1026;51.460;7.252;2023-05-10T15:20:55;18.80;89.50
2042;DHT22;1026;51.460;7.252;2023-05-10T15:23:21;18.90;90.10
2042;DHT22;1026;51.460;7.252;2023-05-10T15:25:47;18.90;90.30
2042;DHT22;1026;51.460;7.252;2023-05-10T15:28:14;18.90;90.10
2042;DHT22;1026;51.460;7.252;2023-05-10T15:30:40;19.00;90.30
2042;DHT22;1026;51.460;7.252;2023-05-10T15:33:06;19.00;90.50
2042;DHT22;1026;51.460;7.252;2023-05-10T15:35:33;19.00;90.30
2042;DHT22;1026;51.460;7.252;2023-05-10T15:38:01;19.00;90.40
2042;DHT22;1026;51.460;7.252;2023-05-10T15:40:26;19.00;90.30
2042;DHT22;1026;51.460;7.252;2023-05-10T15:42:52;19.00;90.60
2042;DHT22;1026;51.460;7.252;2023-05-10T15:45:18;19.00;90.80
2042;DHT22;1026;51.460;7.252;2023-05-10T15:47:44;19.00;90.80
2042;DHT22;1026;51.460;7.252;2023-05-10T15:50:10;19.00;90.90
2042;DHT22;1026;51.460;7.252;2023-05-10T15:52:36;19.00;91.00
2042;DHT22;1026;51.460;7.252;2023-05-10T15:55:02;19.00;91.00
2042;DHT22;1026;51.460;7.252;2023-05-10T15:57:28;19.00;91.00
2042;DHT22;1026;51.460;7.252;2023-05-10T15:59:54;19.00;91.00
2042;DHT22;1026;51.460;7.252;2023-05-10T16:02:20;19.00;91.10
2042;DHT22;1026;51.460;7.252;2023-05-10T16:04:47;19.00;91.00
2042;DHT22;1026;51.460;7.252;2023-05-10T16:07:13;18.90;91.00
2042;DHT22;1026;51.460;7.252;2023-05-10T16:09:38;19.00;91.10
2042;DHT22;1026;51.460;7.252;2023-05-10T16:12:04;19.00;91.10
2042;DHT22;1026;51.460;7.252;2023-05-10T16:14:30;19.00;91.60
2042;DHT22;1026;51.460;7.252;2023-05-10T16:16:56;19.00;91.20
2042;DHT22;1026;51.460;7.252;2023-05-10T16:19:21;19.00;91.30
2042;DHT22;1026;51.460;7.252;2023-05-10T16:21:47;19.00;91.30
2042;DHT22;1026;51.460;7.252;2023-05-10T16:24:13;18.90;91.10
2042;DHT22;1026;51.460;7.252;2023-05-10T16:26:38;19.00;91.40
2042;DHT22;1026;51.460;7.252;2023-05-10T16:29:06;19.00;91.40
2042;DHT22;1026;51.460;7.252;2023-05-10T16:31:32;19.00;91.40
2042;DHT22;1026;51.460;7.252;2023-05-10T16:33:58;19.00;91.30
2042;DHT22;1026;51.460;7.252;2023-05-10T16:36:23;19.00;91.30
2042;DHT22;1026;51.460;7.252;2023-05-10T16:38:49;19.00;91.50
2042;DHT22;1026;51.460;7.252;2023-05-10T16:41:15;19.00;91.40
2042;DHT22;1026;51.460;7.252;2023-05-10T16:43:41;19.00;91.50
2042;DHT22;1026;51.460;7.252;2023-05-10T16:46:10;19.00;91.60
2042;DHT22;1026;51.460;7.252;2023-05-10T16:48:36;19.00;91.60